Strona główna
METAR-TAF:

METAR-TAF

Lotnisko :

Port lotniczy Londyn-Oksford

Oksford, Anglia

Szerokość geograficzna: 51-50-13N, Długość geograficzna: 1-19-12W, wysokość: 82 m

Aktualna obserwacja pogody

Raport powstał 25 minut temu, godzina 06:20 UTC
Wiatr 8 kt od północny wschód
Temperatura 13°C
Wilgotność 77%
Ciśnienie 1024 hPa
Widzialność 10 km lub więcej
Brak chmur poniżej 1500 m i brak chmur cumulonimbus

METAR: EGTK 010620Z 04008KT CAVOK 13/09 Q1024

czas: 07:45 (06:45 UTC)

Prognoza

Raport powstał 23 minut temu, godzina 06:22 UTC
Prognoza ważna od 01 godzina 06 UTC do 01 godzina 15 UTC
Wiatr 8 kt od północny wschód
Widzialność 10 km lub więcej
Brak chmur poniżej 1500 m i brak chmur cumulonimbus

TAF: EGTK 010622Z 0106/0115 04008KT CAVOK

Obserwacja i prognoza pogody dla ponad 4000 lotnisk (raport METAR i TAF).

Dostępne stacje oznaczono żółtymi i czerwonymi punktami na mapie.

Najedź kursorem aby zobaczyć nazwę stacji.

Kliknij aby zobaczyć obserwacje i prognozy pogody.

Aby zmienić mapę: kliknij na zielony przycisk z czarnym krzyżykiem, aby powiększyć; na zielony przycisk z myślnikiem, aby pomniejszyć; na zielone strzałki, aby przejść do map sąsiednich.


METAR-TAF: